.
WxDataArchive / Data Records for 2010-10-14
2010-10-13 October 2010 2010-10-15

Data Records for Thursday, 14 October 2010

Time	Temp	Chill	HIndex	Humid	Dewpt	 Wind 	HiWind	WindDir	Rain 	Barom 
-----	----	-----	------	-----	-----	------	------	-------	-----	----- 
00:00	52.5	52.5	52.5	81	46.8	0	2	315	0.00	30.030 
00:05	52.3	52.3	52.3	81	46.6	0	2	315	0.00	30.030 
00:10	52.2	52.2	52.2	81	46.5	0	2	292	0.00	30.030 
00:15	52.0	52.0	52.0	81	46.4	0	3	292	0.00	30.030 
00:20	52.0	52.0	52.0	81	46.4	0	2	292	0.00	30.030 
00:25	51.9	51.9	51.9	81	46.3	0	1	292	0.00	30.030 
00:30	51.7	51.7	51.7	82	46.4	0	1	292	0.00	30.031 
00:35	51.6	51.6	51.6	82	46.3	0	2	292	0.00	30.031 
00:40	51.3	51.3	51.3	82	46.0	0	2	292	0.00	30.031 
00:45	51.1	51.1	51.1	83	46.1	0	2	292	0.00	30.029 
00:50	51.1	51.1	51.1	83	46.1	0	2	292	0.00	30.029 
00:55	51.0	51.0	51.0	83	46.0	0	1	292	0.00	30.029 
01:00	50.8	50.8	50.8	83	45.8	0	2	292	0.00	30.027 
01:05	50.7	50.7	50.7	83	45.7	0	1	292	0.00	30.027 
01:10	50.7	50.7	50.7	84	46.0	0	1	292	0.00	30.027 
01:15	50.5	50.5	50.5	84	45.8	0	1	292	0.00	30.024 
01:20	50.4	50.4	50.4	84	45.7	0	1	292	0.00	30.024 
01:25	50.4	50.4	50.4	84	45.7	0	2	292	0.00	30.024 
01:30	50.2	50.2	50.2	84	45.6	0	1	292	0.00	30.028 
01:35	50.1	50.1	50.1	84	45.5	0	1	292	0.00	30.028 
01:40	49.8	49.8	49.8	84	45.2	0	1	292	0.00	30.028 
01:45	49.8	49.8	49.8	84	45.2	0	1	292	0.00	30.031 
01:50	49.6	49.6	49.6	85	45.3	0	1	292	0.00	30.031 
01:55	49.5	49.5	49.5	85	45.2	0	1	292	0.00	30.031 
02:00	49.4	49.4	49.4	85	45.1	0	1	292	0.00	30.029 
02:05	49.4	49.4	49.4	85	45.1	0	2	292	0.00	30.029 
02:10	49.2	49.2	49.2	85	44.9	0	1	292	0.00	30.029 
02:15	49.1	49.1	49.1	85	44.8	0	2	292	0.00	30.028 
02:20	48.9	48.9	48.9	86	44.9	0	3	292	0.00	30.028 
02:25	48.9	48.9	48.9	86	44.9	0	1	292	0.00	30.028 
02:30	48.8	48.8	48.8	86	44.8	0	1	292	0.00	30.029 
02:35	48.6	48.6	48.6	86	44.6	0	1	292	0.00	30.029 
02:40	48.5	48.5	48.5	86	44.5	0	1	292	0.00	30.029 
02:45	48.5	48.5	48.5	86	44.5	0	1	292	0.00	30.030 
02:50	48.3	48.3	48.3	86	44.3	0	1	292	0.00	30.030 
02:55	48.2	48.2	48.2	86	44.2	0	1	292	0.00	30.030 
03:00	48.0	48.0	48.0	86	44.0	0	1	292	0.00	30.030 
03:05	47.9	47.9	47.9	86	43.9	0	1	292	0.00	30.030 
03:10	47.9	47.9	47.9	86	43.9	0	1	292	0.00	30.030 
03:15	47.7	47.7	47.7	86	43.7	0	1	292	0.00	30.033 
03:20	47.6	47.6	47.6	86	43.6	0	1	292	0.00	30.033 
03:25	47.6	47.6	47.6	86	43.6	0	1	292	0.00	30.033 
03:30	47.4	47.4	47.4	86	43.4	0	1	292	0.00	30.027 
03:35	47.3	47.3	47.3	87	43.6	0	1	292	0.00	30.027 
03:40	47.3	47.3	47.3	87	43.6	0	1	292	0.00	30.027 
03:45	47.3	47.3	47.3	86	43.3	0	1	292	0.00	30.026 
03:50	47.3	47.3	47.3	86	43.3	0	1	292	0.00	30.026 
03:55	47.1	47.1	47.1	86	43.1	0	1	292	0.00	30.026 
04:00	47.1	47.1	47.1	86	43.1	0	1	292	0.00	30.032 
04:05	47.1	47.1	47.1	86	43.1	0	2	292	0.00	30.032 
04:10	47.1	47.1	47.1	86	43.1	0	1	292	0.00	30.032 
04:15	47.0	47.0	47.0	86	43.0	0	2	292	0.00	30.039 
04:20	47.0	47.0	47.0	86	43.0	0	1	292	0.00	30.039 
04:25	47.0	47.0	47.0	86	43.0	0	1	292	0.00	30.039 
04:30	46.8	46.8	46.8	86	42.8	0	1	292	0.00	30.040 
04:35	46.8	46.8	46.8	86	42.8	0	1	292	0.00	30.040 
04:40	46.7	46.7	46.7	86	42.7	0	2	292	0.00	30.040 
04:45	46.7	46.7	46.7	86	42.7	1	3	292	0.00	30.037 
04:50	46.8	46.8	46.8	86	42.8	0	2	292	0.00	30.037 
04:55	47.0	47.0	47.0	85	42.7	1	3	292	0.00	30.037 
05:00	47.1	47.1	47.1	84	42.5	1	3	315	0.00	30.038 
05:05	47.1	47.1	47.1	84	42.5	0	1	315	0.00	30.038 
05:10	47.0	47.0	47.0	84	42.4	0	1	315	0.00	30.038 
05:15	46.8	46.8	46.8	84	42.2	0	2	315	0.00	30.045 
05:20	46.8	46.8	46.8	84	42.2	0	2	315	0.00	30.045 
05:25	46.7	46.7	46.7	84	42.1	0	1	315	0.00	30.045 
05:30	46.4	46.4	46.4	84	41.8	0	2	315	0.00	30.046 
05:35	46.2	46.2	46.2	85	41.9	0	2	315	0.00	30.046 
05:40	46.1	46.1	46.1	85	41.8	0	2	315	0.00	30.046 
05:45	46.0	46.0	46.0	85	41.7	0	1	315	0.00	30.047 
05:50	45.7	45.7	45.7	85	41.5	0	1	315	0.00	30.047 
05:55	45.5	45.5	45.5	86	41.6	0	1	315	0.00	30.047 
06:00	45.2	45.2	45.2	86	41.3	0	1	315	0.00	30.057 
06:05	45.1	45.1	45.1	87	41.5	0	1	315	0.00	30.057 
06:10	44.9	44.9	44.9	87	41.3	0	1	315	0.00	30.057 
06:15	44.8	44.8	44.8	87	41.2	0	1	315	0.00	30.061 
06:20	44.8	44.8	44.8	88	41.5	0	1	315	0.00	30.061 
06:25	44.6	44.6	44.6	88	41.3	0	1	315	0.00	30.061 
06:30	44.6	44.6	44.6	88	41.3	0	2	315	0.00	30.065 
06:35	44.5	44.5	44.5	88	41.2	0	1	315	0.00	30.065 
06:40	44.5	44.5	44.5	88	41.2	0	0	---	0.00	30.065 
06:45	44.3	44.3	44.3	88	41.0	0	1	315	0.00	30.063 
06:50	44.3	44.3	44.3	88	41.0	0	1	315	0.00	30.063 
06:55	44.3	44.3	44.3	89	41.3	0	1	315	0.00	30.063 
07:00	44.2	44.2	44.2	89	41.2	0	1	315	0.00	30.062 
07:05	44.2	44.2	44.2	89	41.2	0	0	---	0.00	30.062 
07:10	44.2	44.2	44.2	89	41.2	0	0	---	0.00	30.062 
07:15	44.1	44.1	44.1	89	41.1	0	0	---	0.00	30.066 
07:20	43.9	43.9	43.9	89	40.9	0	1	315	0.00	30.066 
07:25	43.9	43.9	43.9	89	40.9	0	1	315	0.00	30.066 
07:30	43.8	43.8	43.8	89	40.8	0	1	315	0.00	30.067 
07:35	43.8	43.8	43.8	89	40.8	0	1	315	0.00	30.067 
07:40	43.6	43.6	43.6	89	40.6	0	1	315	0.00	30.067 
07:45	43.6	43.6	43.6	90	40.9	0	1	315	0.00	30.069 
07:50	43.5	43.5	43.5	90	40.8	0	1	315	0.00	30.069 
07:55	43.5	43.5	43.5	90	40.8	0	1	315	0.00	30.069 
08:00	43.6	43.6	43.6	90	40.9	0	1	315	0.00	30.067 
08:05	43.8	43.8	43.8	90	41.1	0	0	---	0.00	30.067 
08:10	43.9	43.9	43.9	90	41.2	0	1	315	0.00	30.067 
08:15	44.1	44.1	44.1	90	41.4	0	0	---	0.00	30.068 
08:20	44.1	44.1	44.1	89	41.1	0	1	315	0.00	30.068 
08:25	44.2	44.2	44.2	89	41.2	0	1	315	0.00	30.068 
08:30	44.5	44.5	44.5	89	41.5	0	2	315	0.00	30.074 
08:35	44.6	44.6	44.6	88	41.3	0	1	315	0.00	30.074 
08:40	44.9	44.9	44.9	88	41.6	0	0	---	0.00	30.074 
08:45	45.4	45.4	45.4	87	41.8	0	2	315	0.00	30.081 
08:50	45.7	45.7	45.7	87	42.1	0	1	315	0.00	30.081 
08:55	46.1	46.1	46.1	85	41.8	0	2	315	0.00	30.081 
09:00	46.4	46.4	46.4	84	41.8	0	1	315	0.00	30.078 
09:05	46.7	46.7	46.7	84	42.1	0	1	315	0.00	30.078 
09:10	47.0	47.0	47.0	83	42.1	0	1	315	0.00	30.078 
09:15	47.4	47.4	47.4	82	42.2	0	2	315	0.00	30.075 
09:20	47.7	47.7	47.7	81	42.2	0	1	315	0.00	30.075 
09:25	48.2	48.2	48.2	79	42.0	0	4	315	0.00	30.075 
09:30	48.8	48.8	48.8	78	42.2	0	3	315	0.00	30.072 
09:35	49.2	49.2	49.2	76	42.0	0	2	315	0.00	30.072 
09:40	49.6	49.6	49.6	75	42.0	0	1	315	0.00	30.072 
09:45	50.2	50.2	50.2	73	41.9	0	1	315	0.00	30.073 
09:50	50.7	50.7	50.7	72	42.0	0	3	315	0.00	30.073 
09:55	51.1	51.1	51.1	71	42.0	0	1	315	0.00	30.073 
10:00	51.6	51.6	51.6	69	41.8	0	3	315	0.00	30.067 
10:05	52.2	52.2	52.2	67	41.6	0	1	315	0.00	30.067 
10:10	52.9	52.9	52.9	65	41.5	0	2	315	0.00	30.067 
10:15	53.6	53.6	53.6	63	41.3	1	2	315	0.00	30.066 
10:20	54.2	54.2	54.2	62	41.5	0	2	315	0.00	30.066 
10:25	54.7	54.7	54.7	59	40.7	0	2	315	0.00	30.066 
10:30	55.3	55.3	55.3	59	41.2	0	2	315	0.00	30.062 
10:35	55.6	55.6	55.6	56	40.2	1	3	315	0.00	30.062 
10:40	56.0	56.0	56.0	57	41.0	1	4	292	0.00	30.062 
10:45	56.5	56.5	56.5	57	41.5	1	3	292	0.00	30.060 
10:50	56.5	56.5	56.5	57	41.5	1	3	315	0.00	30.060 
10:55	57.0	57.0	57.0	58	42.4	0	2	315	0.00	30.060 
11:00	57.6	57.6	57.6	57	42.5	1	3	338	0.00	30.059 
11:05	58.0	58.0	58.0	56	42.4	1	4	292	0.00	30.059 
11:10	58.0	58.0	58.0	56	42.4	0	2	292	0.00	30.059 
11:15	58.0	58.0	58.0	56	42.4	2	5	315	0.00	30.060 
11:20	58.4	58.4	58.4	56	42.8	1	4	270	0.00	30.060 
11:25	58.7	58.7	58.7	56	43.0	1	4	270	0.00	30.060 
11:30	59.3	59.3	59.3	57	44.1	1	4	315	0.00	30.056 
11:35	59.6	59.6	59.6	54	42.9	2	4	338	0.00	30.056 
11:40	59.6	59.6	59.6	54	42.9	2	5	338	0.00	30.056 
11:45	59.6	59.6	59.6	55	43.4	2	4	292	0.00	30.049 
11:50	59.9	59.9	59.9	53	42.7	2	6	292	0.00	30.049 
11:55	60.2	60.2	60.2	50	41.5	2	5	270	0.00	30.049 
12:00	60.5	60.5	60.5	49	41.2	3	6	270	0.00	30.046 
12:05	60.2	60.2	60.2	48	40.4	2	5	338	0.00	30.046 
12:10	60.5	60.5	60.5	48	40.7	3	7	248	0.00	30.046 
12:15	60.2	60.2	60.2	46	39.3	2	5	270	0.00	30.046 
12:20	59.9	59.9	59.9	48	40.2	2	6	292	0.00	30.046 
12:25	59.8	59.8	59.8	50	41.1	3	7	270	0.00	30.046 
12:30	60.4	60.4	60.4	48	40.6	2	5	270	0.00	30.045 
12:35	61.2	61.2	61.2	46	40.3	3	7	270	0.00	30.045 
12:40	61.5	61.5	61.5	46	40.5	2	5	270	0.00	30.045 
12:45	61.6	61.6	61.6	46	40.6	3	5	270	0.00	30.042 
12:50	61.0	61.0	61.0	44	38.9	3	6	270	0.00	30.042 
12:55	61.5	61.5	61.5	43	38.8	3	5	270	0.00	30.042 
13:00	62.1	62.1	62.1	43	39.3	3	6	270	0.00	30.034 
13:05	62.3	62.3	62.3	44	40.1	2	7	270	0.00	30.034 
13:10	62.7	62.7	62.7	40	38.0	2	5	270	0.00	30.034 
13:15	62.9	62.9	62.9	41	38.8	2	4	270	0.00	30.027 
13:20	62.1	62.1	62.1	42	38.7	2	6	315	0.00	30.027 
13:25	61.0	61.0	61.0	41	37.1	3	6	292	0.00	30.027 
13:30	61.0	61.0	61.0	43	38.3	2	5	315	0.00	30.023 
13:35	61.8	61.8	61.8	43	39.1	2	5	248	0.00	30.023 
13:40	61.8	61.8	61.8	37	35.3	3	6	270	0.00	30.023 
13:45	62.0	62.0	62.0	36	34.7	2	4	270	0.00	30.013 
13:50	62.7	62.7	62.7	37	36.0	1	4	315	0.00	30.013 
13:55	63.4	63.4	63.4	35	35.3	3	6	315	0.00	30.013 
14:00	63.4	63.4	63.4	38	37.3	2	5	292	0.00	30.000 
14:05	62.4	62.4	62.4	41	38.4	3	7	270	0.00	30.000 
14:10	62.4	62.4	62.4	38	36.5	3	6	315	0.00	30.000 
14:15	62.3	62.3	62.3	35	34.3	3	5	270	0.00	29.998 
14:20	62.4	62.4	62.4	35	34.4	2	5	270	0.00	29.998 
14:25	62.9	62.9	62.9	31	31.8	3	6	270	0.00	29.998 
14:30	63.2	63.2	63.2	29	30.4	1	4	270	0.00	29.986 
14:35	63.5	63.5	63.5	30	31.5	2	7	270	0.00	29.986 
14:40	63.2	63.2	63.2	32	32.9	2	5	270	0.00	29.986 
14:45	63.2	63.2	63.2	32	32.9	2	6	270	0.00	29.982 
14:50	63.4	63.4	63.4	31	32.2	3	6	270	0.00	29.982 
14:55	63.5	63.5	63.5	35	35.4	2	4	270	0.00	29.982 
15:00	63.4	63.4	63.4	35	35.3	2	5	270	0.00	29.974 
15:05	63.5	63.5	63.5	35	35.4	1	3	270	0.00	29.974 
15:10	63.9	63.9	63.9	33	34.2	1	5	270	0.00	29.974 
15:15	63.9	63.9	63.9	33	34.2	1	4	270	0.00	29.966 
15:20	64.3	64.3	64.3	33	34.6	1	5	315	0.00	29.966 
15:25	64.5	64.5	64.5	31	33.2	1	3	270	0.00	29.966 
15:30	65.0	65.0	65.0	30	32.8	1	4	270	0.00	29.954 
15:35	65.3	65.3	65.3	28	31.4	1	4	315	0.00	29.954 
15:40	65.0	65.0	65.0	28	31.1	1	4	315	0.00	29.954 
15:45	64.3	64.3	64.3	29	31.4	2	5	315	0.00	29.949 
15:50	64.2	64.2	64.2	30	32.1	1	3	270	0.00	29.949 
15:55	64.5	64.5	64.5	29	31.5	1	5	270	0.00	29.949 
16:00	64.7	64.7	64.7	29	31.7	2	5	270	0.00	29.946 
16:05	64.2	64.2	64.2	29	31.3	2	5	270	0.00	29.946 
16:10	64.0	64.0	64.0	30	31.9	2	4	315	0.00	29.946 
16:15	64.2	64.2	64.2	29	31.3	3	6	270	0.00	29.948 
16:20	63.7	63.7	63.7	29	30.8	2	4	270	0.00	29.948 
16:25	63.4	63.4	63.4	28	29.7	3	6	270	0.00	29.948 
16:30	63.5	63.5	63.5	28	29.8	2	6	270	0.00	29.949 
16:35	63.2	63.2	63.2	28	29.6	2	6	315	0.00	29.949 
16:40	62.9	62.9	62.9	28	29.3	3	6	270	0.00	29.949 
16:45	62.7	62.7	62.7	28	29.1	2	4	270	0.00	29.940 
16:50	62.7	62.7	62.7	28	29.1	2	5	270	0.00	29.940 
16:55	62.6	62.6	62.6	29	29.9	1	4	292	0.00	29.940 
17:00	62.4	62.4	62.4	27	28.0	2	4	248	0.00	29.939 
17:05	62.3	62.3	62.3	27	27.9	2	6	270	0.00	29.939 
17:10	62.3	62.3	62.3	28	28.8	3	5	270	0.00	29.939 
17:15	62.1	62.1	62.1	28	28.6	2	5	270	0.00	29.937 
17:20	62.1	62.1	62.1	28	28.6	2	4	270	0.00	29.937 
17:25	62.0	62.0	62.0	28	28.5	2	6	270	0.00	29.937 
17:30	61.8	61.8	61.8	27	27.5	3	6	270	0.00	29.929 
17:35	61.5	61.5	61.5	28	28.1	2	5	270	0.00	29.929 
17:40	61.5	61.5	61.5	28	28.1	2	5	270	0.00	29.929 
17:45	61.3	61.3	61.3	27	27.0	1	3	270	0.00	29.928 
17:50	61.3	61.3	61.3	26	26.1	3	6	270	0.00	29.928 
17:55	61.3	61.3	61.3	27	27.0	1	5	270	0.00	29.928 
18:00	61.2	61.2	61.2	27	27.0	1	4	270	0.00	29.928 
18:05	61.2	61.2	61.2	27	27.0	1	3	270	0.00	29.928 
18:10	61.2	61.2	61.2	27	27.0	2	4	270	0.00	29.928 
18:15	61.0	61.0	61.0	27	26.8	2	4	292	0.00	29.929 
18:20	61.2	61.2	61.2	28	27.8	2	6	270	0.00	29.929 
18:25	61.2	61.2	61.2	28	27.8	1	3	270	0.00	29.929 
18:30	61.0	61.0	61.0	28	27.7	1	3	270	0.00	29.926 
18:35	60.7	60.7	60.7	27	26.5	1	2	270	0.00	29.926 
18:40	60.4	60.4	60.4	28	27.1	1	3	270	0.00	29.926 
18:45	60.2	60.2	60.2	29	27.8	0	3	270	0.00	29.927 
18:50	59.9	59.9	59.9	30	28.4	0	2	270	0.00	29.927 
18:55	59.8	59.8	59.8	30	28.3	0	1	270	0.00	29.927 
19:00	59.5	59.5	59.5	31	28.8	0	1	270	0.00	29.926 
19:05	59.2	59.2	59.2	31	28.6	0	1	270	0.00	29.926 
19:10	59.2	59.2	59.2	31	28.6	0	1	270	0.00	29.926 
19:15	59.0	59.0	59.0	32	29.2	0	0	---	0.00	29.929 
19:20	58.9	58.9	58.9	32	29.1	0	1	270	0.00	29.929 
19:25	58.7	58.7	58.7	32	28.9	0	0	---	0.00	29.929 
19:30	58.6	58.6	58.6	34	30.3	0	0	---	0.00	29.927 
19:35	58.3	58.3	58.3	34	30.1	0	0	---	0.00	29.927 
19:40	58.1	58.1	58.1	34	29.9	0	0	---	0.00	29.927 
19:45	57.8	57.8	57.8	34	29.6	0	0	---	0.00	29.924 
19:50	57.5	57.5	57.5	36	30.8	0	0	---	0.00	29.924 
19:55	57.2	57.2	57.2	36	30.5	0	0	---	0.00	29.924 
20:00	56.9	56.9	56.9	36	30.2	0	0	---	0.00	29.917 
20:05	56.6	56.6	56.6	36	30.0	0	1	270	0.00	29.917 
20:10	56.5	56.5	56.5	37	30.5	0	0	---	0.00	29.917 
20:15	56.2	56.2	56.2	38	30.9	0	0	---	0.00	29.907 
20:20	56.0	56.0	56.0	39	31.4	0	0	---	0.00	29.907 
20:25	55.7	55.7	55.7	40	31.8	0	0	---	0.00	29.907 
20:30	55.4	55.4	55.4	41	32.1	0	1	270	0.00	29.896 
20:35	55.3	55.3	55.3	41	32.0	0	1	270	0.00	29.896 
20:40	55.0	55.0	55.0	41	31.7	0	0	---	0.00	29.896 
20:45	54.8	54.8	54.8	41	31.6	0	0	---	0.00	29.896 
20:50	54.7	54.7	54.7	43	32.6	0	0	---	0.00	29.896 
20:55	54.5	54.5	54.5	43	32.5	0	0	---	0.00	29.896 
21:00	54.4	54.4	54.4	43	32.4	0	0	---	0.00	29.887 
21:05	54.2	54.2	54.2	43	32.2	0	0	---	0.00	29.887 
21:10	54.1	54.1	54.1	44	32.7	0	0	---	0.00	29.887 
21:15	54.1	54.1	54.1	44	32.7	0	0	---	0.00	29.871 
21:20	53.9	53.9	53.9	44	32.5	0	0	---	0.00	29.871 
21:25	53.9	53.9	53.9	44	32.5	0	0	---	0.00	29.871 
21:30	53.8	53.8	53.8	44	32.4	0	0	---	0.00	29.869 
21:35	53.8	53.8	53.8	44	32.4	0	0	---	0.00	29.869 
21:40	53.6	53.6	53.6	44	32.2	0	0	---	0.00	29.869 
21:45	53.6	53.6	53.6	45	32.8	0	0	---	0.00	29.866 
21:50	53.5	53.5	53.5	45	32.7	0	0	---	0.00	29.866 
21:55	53.2	53.2	53.2	45	32.4	0	0	---	0.00	29.866 
22:00	53.1	53.1	53.1	46	32.9	0	0	---	0.00	29.866 
22:05	52.8	52.8	52.8	49	34.2	0	0	---	0.00	29.866 
22:10	52.5	52.5	52.5	49	33.9	0	0	---	0.00	29.866 
22:15	52.3	52.3	52.3	50	34.2	0	1	270	0.00	29.855 
22:20	52.3	52.3	52.3	49	33.7	0	1	270	0.00	29.855 
22:25	52.3	52.3	52.3	50	34.2	0	1	270	0.00	29.855 
22:30	52.5	52.5	52.5	48	33.4	0	1	270	0.00	29.847 
22:35	52.6	52.6	52.6	49	34.0	0	1	270	0.00	29.847 
22:40	52.8	52.8	52.8	49	34.2	0	1	270	0.00	29.847 
22:45	52.8	52.8	52.8	49	34.2	0	3	248	0.00	29.846 
22:50	52.9	52.9	52.9	47	33.2	0	1	248	0.00	29.846 
22:55	53.3	53.3	53.3	47	33.6	0	1	248	0.00	29.846 
23:00	53.5	53.5	53.5	47	33.8	0	1	248	0.00	29.842 
23:05	53.6	53.6	53.6	46	33.3	0	0	---	0.00	29.842 
23:10	53.6	53.6	53.6	47	33.9	0	0	---	0.00	29.842 
23:15	53.6	53.6	53.6	47	33.9	0	0	---	0.00	29.837 
23:20	53.5	53.5	53.5	47	33.8	0	0	---	0.00	29.837 
23:25	53.2	53.2	53.2	48	34.0	0	0	---	0.00	29.837 
23:30	53.1	53.1	53.1	48	33.9	0	0	---	0.00	29.826 
23:35	52.8	52.8	52.8	49	34.2	0	0	---	0.00	29.826 
23:40	52.5	52.5	52.5	50	34.4	0	0	---	0.00	29.826 
23:45	52.3	52.3	52.3	50	34.2	0	0	---	0.00	29.825 
23:50	52.2	52.2	52.2	50	34.1	0	1	248	0.00	29.825 
23:55	52.0	52.0	52.0	50	33.9	0	1	248	0.00	29.825 

CoCoRaHS
IN-AL-39
A2 Web Hosting
Creative Commons License
GoDaddy
search engine by freefind advanced

loaded 2018-11-13 01:50:54 • last modified 2010-11-18 10:43:29
Privacy PolicyDisclaimer
• wx.awcolley.com is powered by PmWiki v.2002016 •
• all content (unless otherwise noted) © 2018 A W Colley